sensor_id;sensor_type;location;lat;lon;timestamp;P1;durP1;ratioP1;P2;durP2;ratioP2
58842;SDS011;44614;54.356;10.100;2022-08-19T00:00:33;16.27;;;6.63;;
58842;SDS011;44614;54.356;10.100;2022-08-19T00:03:00;13.25;;;6.72;;
58842;SDS011;44614;54.356;10.100;2022-08-19T00:05:25;15.63;;;7.53;;
58842;SDS011;44614;54.356;10.100;2022-08-19T00:07:51;23.67;;;8.13;;
58842;SDS011;44614;54.356;10.100;2022-08-19T00:10:16;16.17;;;7.27;;
58842;SDS011;44614;54.356;10.100;2022-08-19T00:12:44;23.88;;;8.25;;
58842;SDS011;44614;54.356;10.100;2022-08-19T00:15:11;16.13;;;6.93;;
58842;SDS011;44614;54.356;10.100;2022-08-19T00:17:39;17.88;;;6.97;;
58842;SDS011;44614;54.356;10.100;2022-08-19T00:20:05;14.77;;;6.72;;
58842;SDS011;44614;54.356;10.100;2022-08-19T00:24:58;14.38;;;6.18;;
58842;SDS011;44614;54.356;10.100;2022-08-19T00:27:24;19.20;;;7.73;;
58842;SDS011;44614;54.356;10.100;2022-08-19T00:29:49;17.67;;;7.37;;
58842;SDS011;44614;54.356;10.100;2022-08-19T00:32:15;22.27;;;7.67;;
58842;SDS011;44614;54.356;10.100;2022-08-19T00:34:41;16.55;;;7.22;;
58842;SDS011;44614;54.356;10.100;2022-08-19T00:37:07;19.23;;;7.40;;
58842;SDS011;44614;54.356;10.100;2022-08-19T00:39:32;15.77;;;7.40;;
58842;SDS011;44614;54.356;10.100;2022-08-19T00:41:57;16.73;;;6.67;;
58842;SDS011;44614;54.356;10.100;2022-08-19T00:44:24;17.00;;;6.43;;
58842;SDS011;44614;54.356;10.100;2022-08-19T00:46:52;13.93;;;6.47;;
58842;SDS011;44614;54.356;10.100;2022-08-19T00:51:50;16.92;;;7.03;;
58842;SDS011;44614;54.356;10.100;2022-08-19T00:54:18;20.58;;;7.65;;
58842;SDS011;44614;54.356;10.100;2022-08-19T00:56:44;20.10;;;8.10;;
58842;SDS011;44614;54.356;10.100;2022-08-19T00:59:11;16.77;;;6.82;;
58842;SDS011;44614;54.356;10.100;2022-08-19T01:01:39;19.52;;;9.15;;
58842;SDS011;44614;54.356;10.100;2022-08-19T01:04:07;16.45;;;8.65;;
58842;SDS011;44614;54.356;10.100;2022-08-19T01:06:33;14.90;;;7.10;;
58842;SDS011;44614;54.356;10.100;2022-08-19T01:09:01;17.73;;;7.90;;
58842;SDS011;44614;54.356;10.100;2022-08-19T01:11:27;23.38;;;8.82;;
58842;SDS011;44614;54.356;10.100;2022-08-19T01:13:56;19.52;;;7.63;;
58842;SDS011;44614;54.356;10.100;2022-08-19T01:16:22;18.83;;;7.53;;
58842;SDS011;44614;54.356;10.100;2022-08-19T01:18:50;15.02;;;7.50;;
58842;SDS011;44614;54.356;10.100;2022-08-19T01:21:18;17.20;;;8.07;;
58842;SDS011;44614;54.356;10.100;2022-08-19T01:23:56;18.45;;;6.97;;
58842;SDS011;44614;54.356;10.100;2022-08-19T01:26:22;20.23;;;7.53;;
58842;SDS011;44614;54.356;10.100;2022-08-19T01:28:50;21.80;;;8.55;;
58842;SDS011;44614;54.356;10.100;2022-08-19T01:31:18;15.43;;;7.63;;
58842;SDS011;44614;54.356;10.100;2022-08-19T01:33:47;22.10;;;8.05;;
58842;SDS011;44614;54.356;10.100;2022-08-19T01:36:19;26.13;;;9.50;;
58842;SDS011;44614;54.356;10.100;2022-08-19T01:38:50;23.73;;;9.07;;
58842;SDS011;44614;54.356;10.100;2022-08-19T01:41:17;19.07;;;8.50;;
58842;SDS011;44614;54.356;10.100;2022-08-19T01:43:43;18.05;;;8.15;;
58842;SDS011;44614;54.356;10.100;2022-08-19T01:46:08;27.53;;;9.27;;
58842;SDS011;44614;54.356;10.100;2022-08-19T01:48:37;27.77;;;8.30;;
58842;SDS011;44614;54.356;10.100;2022-08-19T01:51:06;17.40;;;7.97;;
58842;SDS011;44614;54.356;10.100;2022-08-19T01:53:34;22.40;;;8.85;;
58842;SDS011;44614;54.356;10.100;2022-08-19T01:56:00;26.83;;;8.97;;
58842;SDS011;44614;54.356;10.100;2022-08-19T01:58:29;16.63;;;7.53;;
58842;SDS011;44614;54.356;10.100;2022-08-19T02:01:01;20.10;;;7.30;;
58842;SDS011;44614;54.356;10.100;2022-08-19T02:03:26;20.53;;;9.13;;
58842;SDS011;44614;54.356;10.100;2022-08-19T02:05:59;21.93;;;8.93;;
58842;SDS011;44614;54.356;10.100;2022-08-19T02:08:26;19.08;;;7.90;;
58842;SDS011;44614;54.356;10.100;2022-08-19T02:10:52;19.13;;;8.70;;
58842;SDS011;44614;54.356;10.100;2022-08-19T02:13:18;23.80;;;9.07;;
58842;SDS011;44614;54.356;10.100;2022-08-19T02:15:43;23.50;;;8.93;;
58842;SDS011;44614;54.356;10.100;2022-08-19T02:18:09;23.87;;;8.57;;
58842;SDS011;44614;54.356;10.100;2022-08-19T02:20:34;17.80;;;8.27;;
58842;SDS011;44614;54.356;10.100;2022-08-19T02:23:00;21.27;;;8.88;;
58842;SDS011;44614;54.356;10.100;2022-08-19T02:25:27;25.57;;;9.97;;
58842;SDS011;44614;54.356;10.100;2022-08-19T02:27:52;20.10;;;7.57;;
58842;SDS011;44614;54.356;10.100;2022-08-19T02:30:19;22.98;;;8.43;;
58842;SDS011;44614;54.356;10.100;2022-08-19T02:32:45;17.45;;;8.65;;
58842;SDS011;44614;54.356;10.100;2022-08-19T02:35:11;23.37;;;9.93;;
58842;SDS011;44614;54.356;10.100;2022-08-19T02:37:39;20.00;;;8.77;;
58842;SDS011;44614;54.356;10.100;2022-08-19T02:40:24;18.98;;;8.90;;
58842;SDS011;44614;54.356;10.100;2022-08-19T02:42:49;27.13;;;9.27;;
58842;SDS011;44614;54.356;10.100;2022-08-19T02:45:15;25.70;;;9.15;;
58842;SDS011;44614;54.356;10.100;2022-08-19T02:47:41;21.80;;;9.17;;
58842;SDS011;44614;54.356;10.100;2022-08-19T02:50:06;23.63;;;8.33;;
58842;SDS011;44614;54.356;10.100;2022-08-19T02:52:32;24.60;;;9.50;;
58842;SDS011;44614;54.356;10.100;2022-08-19T02:57:25;18.58;;;6.78;;
58842;SDS011;44614;54.356;10.100;2022-08-19T02:59:50;24.70;;;9.43;;
58842;SDS011;44614;54.356;10.100;2022-08-19T03:02:16;20.60;;;7.90;;
58842;SDS011;44614;54.356;10.100;2022-08-19T03:04:42;22.63;;;8.60;;
58842;SDS011;44614;54.356;10.100;2022-08-19T03:07:08;26.30;;;7.93;;
58842;SDS011;44614;54.356;10.100;2022-08-19T03:09:36;20.17;;;9.00;;
58842;SDS011;44614;54.356;10.100;2022-08-19T03:12:02;17.25;;;8.77;;
58842;SDS011;44614;54.356;10.100;2022-08-19T03:14:31;15.80;;;8.13;;
58842;SDS011;44614;54.356;10.100;2022-08-19T03:16:57;17.85;;;8.30;;
58842;SDS011;44614;54.356;10.100;2022-08-19T03:19:23;24.30;;;9.73;;
58842;SDS011;44614;54.356;10.100;2022-08-19T03:21:49;25.83;;;8.47;;
58842;SDS011;44614;54.356;10.100;2022-08-19T03:24:15;25.05;;;10.13;;
58842;SDS011;44614;54.356;10.100;2022-08-19T03:26:44;25.05;;;9.57;;
58842;SDS011;44614;54.356;10.100;2022-08-19T03:29:12;24.42;;;9.10;;
58842;SDS011;44614;54.356;10.100;2022-08-19T03:31:39;16.15;;;8.05;;
58842;SDS011;44614;54.356;10.100;2022-08-19T03:34:06;22.52;;;8.80;;
58842;SDS011;44614;54.356;10.100;2022-08-19T03:36:32;24.65;;;9.43;;
58842;SDS011;44614;54.356;10.100;2022-08-19T03:38:59;23.87;;;8.80;;
58842;SDS011;44614;54.356;10.100;2022-08-19T03:41:27;22.20;;;8.23;;
58842;SDS011;44614;54.356;10.100;2022-08-19T03:43:55;18.85;;;7.72;;
58842;SDS011;44614;54.356;10.100;2022-08-19T03:46:22;17.83;;;7.73;;
58842;SDS011;44614;54.356;10.100;2022-08-19T03:48:50;20.48;;;8.55;;
58842;SDS011;44614;54.356;10.100;2022-08-19T03:51:21;16.65;;;8.93;;
58842;SDS011;44614;54.356;10.100;2022-08-19T03:53:50;20.08;;;8.20;;
58842;SDS011;44614;54.356;10.100;2022-08-19T03:58:43;26.17;;;8.52;;
58842;SDS011;44614;54.356;10.100;2022-08-19T04:03:35;17.83;;;10.05;;
58842;SDS011;44614;54.356;10.100;2022-08-19T04:08:40;19.67;;;7.75;;
58842;SDS011;44614;54.356;10.100;2022-08-19T04:11:12;16.50;;;7.50;;
58842;SDS011;44614;54.356;10.100;2022-08-19T04:13:40;17.70;;;8.15;;
58842;SDS011;44614;54.356;10.100;2022-08-19T04:16:07;16.55;;;6.85;;
58842;SDS011;44614;54.356;10.100;2022-08-19T04:18:34;11.60;;;7.05;;
58842;SDS011;44614;54.356;10.100;2022-08-19T04:21:01;18.77;;;8.68;;
58842;SDS011;44614;54.356;10.100;2022-08-19T04:23:26;22.20;;;9.27;;
58842;SDS011;44614;54.356;10.100;2022-08-19T04:25:53;17.33;;;6.70;;
58842;SDS011;44614;54.356;10.100;2022-08-19T04:28:19;17.65;;;7.88;;
58842;SDS011;44614;54.356;10.100;2022-08-19T04:30:45;15.77;;;7.90;;
58842;SDS011;44614;54.356;10.100;2022-08-19T04:33:13;15.02;;;7.68;;
58842;SDS011;44614;54.356;10.100;2022-08-19T04:35:41;29.77;;;8.38;;
58842;SDS011;44614;54.356;10.100;2022-08-19T04:38:10;22.25;;;8.05;;
58842;SDS011;44614;54.356;10.100;2022-08-19T04:40:40;16.60;;;7.65;;
58842;SDS011;44614;54.356;10.100;2022-08-19T04:43:25;21.42;;;8.23;;
58842;SDS011;44614;54.356;10.100;2022-08-19T04:45:51;17.63;;;8.20;;
58842;SDS011;44614;54.356;10.100;2022-08-19T04:48:17;18.57;;;7.10;;
58842;SDS011;44614;54.356;10.100;2022-08-19T04:50:51;21.92;;;7.78;;
58842;SDS011;44614;54.356;10.100;2022-08-19T04:53:22;18.90;;;8.13;;
58842;SDS011;44614;54.356;10.100;2022-08-19T04:55:48;24.27;;;8.18;;
58842;SDS011;44614;54.356;10.100;2022-08-19T04:58:13;21.57;;;7.47;;
58842;SDS011;44614;54.356;10.100;2022-08-19T05:00:39;14.73;;;6.43;;
58842;SDS011;44614;54.356;10.100;2022-08-19T05:03:05;20.75;;;8.45;;
58842;SDS011;44614;54.356;10.100;2022-08-19T05:05:30;13.77;;;7.43;;
58842;SDS011;44614;54.356;10.100;2022-08-19T05:07:56;23.80;;;7.63;;
58842;SDS011;44614;54.356;10.100;2022-08-19T05:10:21;20.63;;;7.37;;
58842;SDS011;44614;54.356;10.100;2022-08-19T05:12:46;18.17;;;6.50;;
58842;SDS011;44614;54.356;10.100;2022-08-19T05:15:12;21.33;;;7.50;;
58842;SDS011;44614;54.356;10.100;2022-08-19T05:17:37;19.20;;;8.50;;
58842;SDS011;44614;54.356;10.100;2022-08-19T05:20:23;21.30;;;8.52;;
58842;SDS011;44614;54.356;10.100;2022-08-19T05:23:07;17.52;;;8.18;;
58842;SDS011;44614;54.356;10.100;2022-08-19T05:25:35;20.83;;;8.80;;
58842;SDS011;44614;54.356;10.100;2022-08-19T05:28:04;17.42;;;8.40;;
58842;SDS011;44614;54.356;10.100;2022-08-19T05:30:29;22.33;;;7.63;;
58842;SDS011;44614;54.356;10.100;2022-08-19T05:32:55;20.30;;;8.10;;
58842;SDS011;44614;54.356;10.100;2022-08-19T05:35:20;20.47;;;8.20;;
58842;SDS011;44614;54.356;10.100;2022-08-19T05:37:46;18.00;;;8.63;;
58842;SDS011;44614;54.356;10.100;2022-08-19T05:40:11;18.60;;;9.03;;
58842;SDS011;44614;54.356;10.100;2022-08-19T05:42:37;19.27;;;7.60;;
58842;SDS011;44614;54.356;10.100;2022-08-19T05:45:02;19.63;;;8.67;;
58842;SDS011;44614;54.356;10.100;2022-08-19T05:47:29;19.30;;;9.27;;
58842;SDS011;44614;54.356;10.100;2022-08-19T05:49:54;27.23;;;8.20;;
58842;SDS011;44614;54.356;10.100;2022-08-19T05:52:19;24.53;;;8.83;;
58842;SDS011;44614;54.356;10.100;2022-08-19T05:54:45;21.07;;;8.87;;
58842;SDS011;44614;54.356;10.100;2022-08-19T05:57:12;19.95;;;7.63;;
58842;SDS011;44614;54.356;10.100;2022-08-19T05:59:38;21.98;;;8.75;;
58842;SDS011;44614;54.356;10.100;2022-08-19T06:02:04;24.77;;;8.20;;
58842;SDS011;44614;54.356;10.100;2022-08-19T06:04:31;21.92;;;8.88;;
58842;SDS011;44614;54.356;10.100;2022-08-19T06:06:57;29.50;;;8.87;;
58842;SDS011;44614;54.356;10.100;2022-08-19T06:09:23;29.48;;;7.38;;
58842;SDS011;44614;54.356;10.100;2022-08-19T06:11:50;18.40;;;7.47;;
58842;SDS011;44614;54.356;10.100;2022-08-19T06:14:23;23.38;;;8.80;;
58842;SDS011;44614;54.356;10.100;2022-08-19T06:16:50;19.33;;;8.43;;
58842;SDS011;44614;54.356;10.100;2022-08-19T06:19:17;32.33;;;8.10;;
58842;SDS011;44614;54.356;10.100;2022-08-19T06:21:46;17.85;;;8.07;;
58842;SDS011;44614;54.356;10.100;2022-08-19T06:24:14;19.17;;;9.35;;
58842;SDS011;44614;54.356;10.100;2022-08-19T06:26:42;16.80;;;6.47;;
58842;SDS011;44614;54.356;10.100;2022-08-19T06:29:10;28.73;;;9.18;;
58842;SDS011;44614;54.356;10.100;2022-08-19T06:31:40;20.73;;;7.38;;
58842;SDS011;44614;54.356;10.100;2022-08-19T06:34:08;16.85;;;8.55;;
58842;SDS011;44614;54.356;10.100;2022-08-19T06:36:35;18.50;;;8.70;;
58842;SDS011;44614;54.356;10.100;2022-08-19T06:39:06;20.23;;;9.18;;
58842;SDS011;44614;54.356;10.100;2022-08-19T06:41:34;17.10;;;8.40;;
58842;SDS011;44614;54.356;10.100;2022-08-19T06:44:02;20.75;;;8.20;;
58842;SDS011;44614;54.356;10.100;2022-08-19T06:46:27;21.17;;;8.67;;
58842;SDS011;44614;54.356;10.100;2022-08-19T06:48:53;18.80;;;9.17;;
58842;SDS011;44614;54.356;10.100;2022-08-19T06:51:19;20.87;;;8.63;;
58842;SDS011;44614;54.356;10.100;2022-08-19T06:53:46;17.40;;;9.60;;
58842;SDS011;44614;54.356;10.100;2022-08-19T06:56:14;22.02;;;9.57;;
58842;SDS011;44614;54.356;10.100;2022-08-19T06:58:41;22.27;;;10.95;;
58842;SDS011;44614;54.356;10.100;2022-08-19T07:01:07;19.87;;;9.73;;
58842;SDS011;44614;54.356;10.100;2022-08-19T07:03:33;21.65;;;8.85;;
58842;SDS011;44614;54.356;10.100;2022-08-19T07:06:07;22.10;;;9.93;;
58842;SDS011;44614;54.356;10.100;2022-08-19T07:08:36;24.77;;;9.57;;
58842;SDS011;44614;54.356;10.100;2022-08-19T07:11:05;16.30;;;8.20;;
58842;SDS011;44614;54.356;10.100;2022-08-19T07:13:31;22.80;;;8.70;;
58842;SDS011;44614;54.356;10.100;2022-08-19T07:16:08;20.08;;;9.30;;
58842;SDS011;44614;54.356;10.100;2022-08-19T07:18:36;30.75;;;11.63;;
58842;SDS011;44614;54.356;10.100;2022-08-19T07:21:06;18.42;;;9.55;;
58842;SDS011;44614;54.356;10.100;2022-08-19T07:23:34;22.60;;;10.77;;
58842;SDS011;44614;54.356;10.100;2022-08-19T07:26:07;17.77;;;9.53;;
58842;SDS011;44614;54.356;10.100;2022-08-19T07:28:35;25.10;;;10.80;;
58842;SDS011;44614;54.356;10.100;2022-08-19T07:31:05;23.05;;;9.13;;
58842;SDS011;44614;54.356;10.100;2022-08-19T07:33:34;19.50;;;8.65;;
58842;SDS011;44614;54.356;10.100;2022-08-19T07:36:02;24.30;;;9.35;;
58842;SDS011;44614;54.356;10.100;2022-08-19T07:38:29;17.25;;;8.32;;
58842;SDS011;44614;54.356;10.100;2022-08-19T07:40:54;19.50;;;9.47;;
58842;SDS011;44614;54.356;10.100;2022-08-19T07:43:20;18.37;;;9.83;;
58842;SDS011;44614;54.356;10.100;2022-08-19T07:45:50;22.70;;;9.45;;
58842;SDS011;44614;54.356;10.100;2022-08-19T07:48:21;18.85;;;9.40;;
58842;SDS011;44614;54.356;10.100;2022-08-19T07:50:50;19.95;;;9.65;;
58842;SDS011;44614;54.356;10.100;2022-08-19T07:53:17;20.85;;;9.70;;
58842;SDS011;44614;54.356;10.100;2022-08-19T07:55:43;19.60;;;9.60;;
58842;SDS011;44614;54.356;10.100;2022-08-19T07:58:09;21.77;;;9.03;;
58842;SDS011;44614;54.356;10.100;2022-08-19T08:00:35;22.30;;;9.82;;
58842;SDS011;44614;54.356;10.100;2022-08-19T08:03:01;23.40;;;10.20;;
58842;SDS011;44614;54.356;10.100;2022-08-19T08:05:26;19.43;;;9.37;;
58842;SDS011;44614;54.356;10.100;2022-08-19T08:08:11;23.77;;;9.60;;
58842;SDS011;44614;54.356;10.100;2022-08-19T08:11:12;21.92;;;9.73;;
58842;SDS011;44614;54.356;10.100;2022-08-19T08:13:37;16.70;;;8.77;;
58842;SDS011;44614;54.356;10.100;2022-08-19T08:16:03;16.73;;;8.93;;
58842;SDS011;44614;54.356;10.100;2022-08-19T08:18:29;20.87;;;9.10;;
58842;SDS011;44614;54.356;10.100;2022-08-19T08:20:55;23.50;;;9.73;;
58842;SDS011;44614;54.356;10.100;2022-08-19T08:23:21;17.98;;;8.98;;
58842;SDS011;44614;54.356;10.100;2022-08-19T08:25:47;21.30;;;8.43;;
58842;SDS011;44614;54.356;10.100;2022-08-19T08:30:39;22.83;;;9.98;;
58842;SDS011;44614;54.356;10.100;2022-08-19T08:33:07;18.17;;;9.50;;
58842;SDS011;44614;54.356;10.100;2022-08-19T08:35:32;18.43;;;8.63;;
58842;SDS011;44614;54.356;10.100;2022-08-19T08:37:58;22.90;;;9.67;;
58842;SDS011;44614;54.356;10.100;2022-08-19T08:40:33;26.07;;;10.30;;
58842;SDS011;44614;54.356;10.100;2022-08-19T08:46:00;20.35;;;10.60;;
58842;SDS011;44614;54.356;10.100;2022-08-19T08:51:00;27.45;;;11.75;;
58842;SDS011;44614;54.356;10.100;2022-08-19T08:53:28;26.15;;;10.88;;
58842;SDS011;44614;54.356;10.100;2022-08-19T08:55:55;25.70;;;11.27;;
58842;SDS011;44614;54.356;10.100;2022-08-19T08:58:25;27.00;;;10.47;;
58842;SDS011;44614;54.356;10.100;2022-08-19T09:00:55;28.40;;;11.52;;
58842;SDS011;44614;54.356;10.100;2022-08-19T09:03:24;24.35;;;11.45;;
58842;SDS011;44614;54.356;10.100;2022-08-19T09:08:55;26.08;;;10.85;;
58842;SDS011;44614;54.356;10.100;2022-08-19T09:11:36;24.30;;;10.63;;
58842;SDS011;44614;54.356;10.100;2022-08-19T09:14:14;21.20;;;10.43;;
58842;SDS011;44614;54.356;10.100;2022-08-19T09:16:52;24.70;;;10.85;;
58842;SDS011;44614;54.356;10.100;2022-08-19T09:19:17;26.63;;;11.10;;
58842;SDS011;44614;54.356;10.100;2022-08-19T09:21:42;24.80;;;10.33;;
58842;SDS011;44614;54.356;10.100;2022-08-19T09:24:08;29.27;;;11.27;;
58842;SDS011;44614;54.356;10.100;2022-08-19T09:26:33;25.33;;;10.97;;
58842;SDS011;44614;54.356;10.100;2022-08-19T09:28:59;21.93;;;9.73;;
58842;SDS011;44614;54.356;10.100;2022-08-19T09:33:52;23.55;;;9.85;;
58842;SDS011;44614;54.356;10.100;2022-08-19T09:36:22;25.52;;;10.85;;
58842;SDS011;44614;54.356;10.100;2022-08-19T09:38:49;22.63;;;11.07;;
58842;SDS011;44614;54.356;10.100;2022-08-19T09:41:16;19.83;;;10.63;;
58842;SDS011;44614;54.356;10.100;2022-08-19T09:43:47;24.02;;;10.05;;
58842;SDS011;44614;54.356;10.100;2022-08-19T09:46:20;19.05;;;9.93;;
58842;SDS011;44614;54.356;10.100;2022-08-19T09:48:47;24.67;;;11.55;;
58842;SDS011;44614;54.356;10.100;2022-08-19T09:53:43;23.70;;;10.38;;
58842;SDS011;44614;54.356;10.100;2022-08-19T09:56:10;24.23;;;11.20;;
58842;SDS011;44614;54.356;10.100;2022-08-19T09:58:36;24.52;;;10.23;;
58842;SDS011;44614;54.356;10.100;2022-08-19T10:01:03;21.50;;;9.90;;
58842;SDS011;44614;54.356;10.100;2022-08-19T10:03:29;25.38;;;10.63;;
58842;SDS011;44614;54.356;10.100;2022-08-19T10:08:24;23.45;;;10.43;;
58842;SDS011;44614;54.356;10.100;2022-08-19T10:10:52;28.00;;;10.82;;
58842;SDS011;44614;54.356;10.100;2022-08-19T10:13:19;26.40;;;9.82;;
58842;SDS011;44614;54.356;10.100;2022-08-19T10:15:50;20.90;;;8.50;;
58842;SDS011;44614;54.356;10.100;2022-08-19T10:18:17;18.63;;;8.95;;
58842;SDS011;44614;54.356;10.100;2022-08-19T10:20:45;18.08;;;7.68;;
58842;SDS011;44614;54.356;10.100;2022-08-19T10:23:12;19.50;;;10.32;;
58842;SDS011;44614;54.356;10.100;2022-08-19T10:25:37;18.13;;;8.25;;
58842;SDS011;44614;54.356;10.100;2022-08-19T10:28:03;19.63;;;7.70;;
58842;SDS011;44614;54.356;10.100;2022-08-19T10:30:30;16.55;;;7.75;;
58842;SDS011;44614;54.356;10.100;2022-08-19T10:32:56;20.50;;;8.23;;
58842;SDS011;44614;54.356;10.100;2022-08-19T10:35:21;14.67;;;8.50;;
58842;SDS011;44614;54.356;10.100;2022-08-19T10:37:47;18.50;;;9.27;;
58842;SDS011;44614;54.356;10.100;2022-08-19T10:40:13;21.53;;;9.37;;
58842;SDS011;44614;54.356;10.100;2022-08-19T10:42:38;22.13;;;9.13;;
58842;SDS011;44614;54.356;10.100;2022-08-19T10:45:04;22.67;;;8.40;;
58842;SDS011;44614;54.356;10.100;2022-08-19T10:47:31;18.58;;;8.68;;
58842;SDS011;44614;54.356;10.100;2022-08-19T10:49:57;19.58;;;9.15;;
58842;SDS011;44614;54.356;10.100;2022-08-19T10:52:42;22.23;;;9.32;;
58842;SDS011;44614;54.356;10.100;2022-08-19T10:55:09;21.90;;;9.13;;
58842;SDS011;44614;54.356;10.100;2022-08-19T10:57:53;17.83;;;9.40;;
58842;SDS011;44614;54.356;10.100;2022-08-19T11:00:19;20.07;;;9.17;;
58842;SDS011;44614;54.356;10.100;2022-08-19T11:02:47;25.27;;;9.20;;
58842;SDS011;44614;54.356;10.100;2022-08-19T11:05:12;20.40;;;8.77;;
58842;SDS011;44614;54.356;10.100;2022-08-19T11:07:39;21.65;;;8.23;;
58842;SDS011;44614;54.356;10.100;2022-08-19T11:10:06;19.35;;;9.55;;
58842;SDS011;44614;54.356;10.100;2022-08-19T11:12:33;21.77;;;8.80;;
58842;SDS011;44614;54.356;10.100;2022-08-19T11:15:03;20.77;;;9.07;;
58842;SDS011;44614;54.356;10.100;2022-08-19T11:17:29;22.05;;;9.23;;
58842;SDS011;44614;54.356;10.100;2022-08-19T11:19:56;20.40;;;9.60;;
58842;SDS011;44614;54.356;10.100;2022-08-19T11:22:21;26.07;;;10.40;;
58842;SDS011;44614;54.356;10.100;2022-08-19T11:24:47;23.03;;;10.97;;
58842;SDS011;44614;54.356;10.100;2022-08-19T11:27:12;26.47;;;11.23;;
58842;SDS011;44614;54.356;10.100;2022-08-19T11:32:05;24.13;;;9.60;;
58842;SDS011;44614;54.356;10.100;2022-08-19T11:34:33;20.63;;;9.82;;
58842;SDS011;44614;54.356;10.100;2022-08-19T11:39:27;22.75;;;9.65;;
58842;SDS011;44614;54.356;10.100;2022-08-19T11:41:55;27.30;;;11.02;;
58842;SDS011;44614;54.356;10.100;2022-08-19T11:44:22;22.88;;;9.98;;
58842;SDS011;44614;54.356;10.100;2022-08-19T11:46:48;21.83;;;9.80;;
58842;SDS011;44614;54.356;10.100;2022-08-19T11:49:15;28.23;;;10.97;;
58842;SDS011;44614;54.356;10.100;2022-08-19T11:51:43;22.63;;;10.10;;
58842;SDS011;44614;54.356;10.100;2022-08-19T11:54:10;22.13;;;11.03;;
58842;SDS011;44614;54.356;10.100;2022-08-19T11:56:37;30.73;;;12.50;;
58842;SDS011;44614;54.356;10.100;2022-08-19T11:59:03;25.27;;;9.80;;
58842;SDS011;44614;54.356;10.100;2022-08-19T12:01:28;27.73;;;10.93;;
58842;SDS011;44614;54.356;10.100;2022-08-19T12:03:54;21.40;;;9.53;;
58842;SDS011;44614;54.356;10.100;2022-08-19T12:06:22;28.15;;;9.20;;
58842;SDS011;44614;54.356;10.100;2022-08-19T12:08:54;26.50;;;10.05;;
58842;SDS011;44614;54.356;10.100;2022-08-19T12:11:21;24.23;;;9.57;;
58842;SDS011;44614;54.356;10.100;2022-08-19T12:13:47;23.73;;;9.90;;
58842;SDS011;44614;54.356;10.100;2022-08-19T12:16:15;22.20;;;10.03;;
58842;SDS011;44614;54.356;10.100;2022-08-19T12:18:43;24.40;;;9.63;;
58842;SDS011;44614;54.356;10.100;2022-08-19T12:21:11;24.73;;;10.98;;
58842;SDS011;44614;54.356;10.100;2022-08-19T12:23:38;18.45;;;10.55;;
58842;SDS011;44614;54.356;10.100;2022-08-19T12:26:05;27.30;;;12.13;;
58842;SDS011;44614;54.356;10.100;2022-08-19T12:28:30;18.23;;;9.77;;
58842;SDS011;44614;54.356;10.100;2022-08-19T12:30:56;20.07;;;10.00;;
58842;SDS011;44614;54.356;10.100;2022-08-19T12:33:22;26.47;;;10.77;;
58842;SDS011;44614;54.356;10.100;2022-08-19T12:35:50;28.17;;;9.95;;
58842;SDS011;44614;54.356;10.100;2022-08-19T12:38:16;26.15;;;10.55;;
58842;SDS011;44614;54.356;10.100;2022-08-19T12:40:41;28.03;;;10.33;;
58842;SDS011;44614;54.356;10.100;2022-08-19T12:43:10;25.45;;;10.07;;
58842;SDS011;44614;54.356;10.100;2022-08-19T12:45:36;29.70;;;11.33;;
58842;SDS011;44614;54.356;10.100;2022-08-19T12:48:02;22.92;;;9.55;;
58842;SDS011;44614;54.356;10.100;2022-08-19T12:50:29;27.35;;;11.27;;
58842;SDS011;44614;54.356;10.100;2022-08-19T12:52:55;23.27;;;11.55;;
58842;SDS011;44614;54.356;10.100;2022-08-19T12:55:22;25.77;;;8.93;;
58842;SDS011;44614;54.356;10.100;2022-08-19T12:57:47;27.47;;;11.30;;
58842;SDS011;44614;54.356;10.100;2022-08-19T13:00:17;22.05;;;9.23;;
58842;SDS011;44614;54.356;10.100;2022-08-19T13:02:46;23.65;;;10.10;;
58842;SDS011;44614;54.356;10.100;2022-08-19T13:05:15;21.83;;;10.45;;
58842;SDS011;44614;54.356;10.100;2022-08-19T13:07:44;22.67;;;10.55;;
58842;SDS011;44614;54.356;10.100;2022-08-19T13:10:11;20.67;;;9.07;;
58842;SDS011;44614;54.356;10.100;2022-08-19T13:12:40;22.35;;;9.55;;
58842;SDS011;44614;54.356;10.100;2022-08-19T13:15:06;22.27;;;9.30;;
58842;SDS011;44614;54.356;10.100;2022-08-19T13:17:33;21.27;;;8.38;;
58842;SDS011;44614;54.356;10.100;2022-08-19T13:19:59;22.98;;;11.10;;
58842;SDS011;44614;54.356;10.100;2022-08-19T13:22:24;22.23;;;9.83;;
58842;SDS011;44614;54.356;10.100;2022-08-19T13:24:50;21.70;;;9.47;;
58842;SDS011;44614;54.356;10.100;2022-08-19T13:27:15;20.87;;;10.90;;
58842;SDS011;44614;54.356;10.100;2022-08-19T13:29:41;22.13;;;8.90;;
58842;SDS011;44614;54.356;10.100;2022-08-19T13:32:25;17.20;;;8.45;;
58842;SDS011;44614;54.356;10.100;2022-08-19T13:35:09;24.67;;;10.32;;
58842;SDS011;44614;54.356;10.100;2022-08-19T13:37:35;22.35;;;10.15;;
58842;SDS011;44614;54.356;10.100;2022-08-19T13:40:08;23.83;;;9.48;;
58842;SDS011;44614;54.356;10.100;2022-08-19T13:42:37;17.70;;;9.25;;
58842;SDS011;44614;54.356;10.100;2022-08-19T13:45:04;15.40;;;7.47;;
58842;SDS011;44614;54.356;10.100;2022-08-19T13:47:31;19.20;;;8.40;;
58842;SDS011;44614;54.356;10.100;2022-08-19T13:49:59;21.40;;;10.55;;
58842;SDS011;44614;54.356;10.100;2022-08-19T13:52:25;21.77;;;11.05;;
58842;SDS011;44614;54.356;10.100;2022-08-19T13:54:50;22.67;;;8.67;;
58842;SDS011;44614;54.356;10.100;2022-08-19T13:57:16;25.27;;;10.10;;
58842;SDS011;44614;54.356;10.100;2022-08-19T13:59:41;22.87;;;9.83;;
58842;SDS011;44614;54.356;10.100;2022-08-19T14:02:06;21.57;;;8.77;;
58842;SDS011;44614;54.356;10.100;2022-08-19T14:04:32;22.50;;;9.37;;
58842;SDS011;44614;54.356;10.100;2022-08-19T14:06:57;20.13;;;9.77;;
58842;SDS011;44614;54.356;10.100;2022-08-19T14:09:22;25.93;;;11.10;;
58842;SDS011;44614;54.356;10.100;2022-08-19T14:11:48;17.20;;;10.37;;
58842;SDS011;44614;54.356;10.100;2022-08-19T14:14:15;25.75;;;10.50;;
58842;SDS011;44614;54.356;10.100;2022-08-19T14:16:40;22.13;;;9.67;;
58842;SDS011;44614;54.356;10.100;2022-08-19T14:19:05;25.13;;;10.43;;
58842;SDS011;44614;54.356;10.100;2022-08-19T14:21:32;24.92;;;11.15;;
58842;SDS011;44614;54.356;10.100;2022-08-19T14:23:58;27.40;;;10.23;;
58842;SDS011;44614;54.356;10.100;2022-08-19T14:26:23;20.07;;;8.87;;
58842;SDS011;44614;54.356;10.100;2022-08-19T14:28:49;22.83;;;10.23;;
58842;SDS011;44614;54.356;10.100;2022-08-19T14:31:15;17.90;;;10.97;;
58842;SDS011;44614;54.356;10.100;2022-08-19T14:33:44;21.45;;;8.93;;
58842;SDS011;44614;54.356;10.100;2022-08-19T14:36:12;22.45;;;10.40;;
58842;SDS011;44614;54.356;10.100;2022-08-19T14:38:38;23.87;;;10.10;;
58842;SDS011;44614;54.356;10.100;2022-08-19T14:43:45;22.38;;;9.70;;
58842;SDS011;44614;54.356;10.100;2022-08-19T14:46:15;24.27;;;9.82;;
58842;SDS011;44614;54.356;10.100;2022-08-19T14:48:42;19.80;;;9.45;;
58842;SDS011;44614;54.356;10.100;2022-08-19T14:51:09;20.95;;;9.13;;
58842;SDS011;44614;54.356;10.100;2022-08-19T14:53:34;21.33;;;9.67;;
58842;SDS011;44614;54.356;10.100;2022-08-19T14:56:00;17.93;;;9.40;;
58842;SDS011;44614;54.356;10.100;2022-08-19T14:58:26;22.50;;;10.25;;
58842;SDS011;44614;54.356;10.100;2022-08-19T15:00:53;18.13;;;8.90;;